Time;durP1;ratioP1;P1;durP2;ratioP2;P2;SDS_P1;SDS_P2;PMS_P1;PMS_P2;Temp;Humidity;BMP_temperature;BMP_pressure;BME280_temperature;BME280_humidity;BME280_pressure;Samples;Min_cycle;Max_cycle;Signal;HPM_P1;HPM_P2
2023/05/01 00:00:06;;;;;;;10.47;9.57;;;10.60;51.70;;;;;;5056081;28;20513;-43
2023/05/01 00:02:31;;;;;;;11.27;10.03;;;10.60;99.90;;;;;;5055357;28;20229;-44
2023/05/01 00:04:57;;;;;;;10.63;9.63;;;10.50;99.90;;;;;;5055113;28;20444;-42
2023/05/01 00:07:29;;;;;;;11.30;10.30;;;10.50;99.90;;;;;;5056028;28;20266;-44
2023/05/01 00:09:55;;;;;;;11.47;10.40;;;10.60;99.90;;;;;;5056496;28;20568;-44
2023/05/01 00:12:21;;;;;;;11.40;10.30;;;10.50;1.00;;;;;;5055517;28;20416;-45
2023/05/01 00:14:47;;;;;;;12.37;11.07;;;10.50;1.00;;;;;;5055370;28;20544;-44
2023/05/01 00:17:13;;;;;;;11.50;10.47;;;10.50;1.00;;;;;;5054587;28;20277;-44
2023/05/01 00:19:38;;;;;;;11.57;10.57;;;10.40;1.00;;;;;;5055978;28;20189;-43
2023/05/01 00:22:04;;;;;;;12.53;11.33;;;10.40;1.00;;;;;;5054877;28;20703;-43
2023/05/01 00:24:30;;;;;;;11.80;10.70;;;10.50;1.00;;;;;;5055724;28;20196;-42
2023/05/01 00:26:55;;;;;;;10.90;10.00;;;10.40;1.00;;;;;;5055905;28;20174;-43
2023/05/01 00:29:21;;;;;;;10.63;9.53;;;10.40;13.50;;;;;;5054483;28;20217;-42
2023/05/01 00:31:47;;;;;;;12.17;10.97;;;10.30;99.90;;;;;;5056841;28;20342;-47
2023/05/01 00:34:13;;;;;;;12.60;11.30;;;10.30;99.90;;;;;;5056949;28;20495;-46
2023/05/01 00:36:38;;;;;;;12.30;11.03;;;10.30;99.90;;;;;;5056233;28;20508;-47
2023/05/01 00:39:06;;;;;;;14.50;13.00;;;10.30;99.90;;;;;;5054975;28;20162;-45
2023/05/01 00:41:35;;;;;;;13.40;11.80;;;10.20;99.90;;;;;;5054344;28;20475;-44
2023/05/01 00:44:01;;;;;;;13.30;11.90;;;10.20;99.90;;;;;;5053258;28;20829;-45
2023/05/01 00:46:28;;;;;;;13.30;11.43;;;10.20;1.00;;;;;;5053141;28;20428;-45
2023/05/01 00:48:55;;;;;;;12.30;11.00;;;10.20;1.00;;;;;;5053091;28;20174;-45
2023/05/01 00:51:23;;;;;;;21.93;12.53;;;10.20;1.00;;;;;;5054771;28;20497;-44
2023/05/01 00:53:48;;;;;;;10.13;9.23;;;10.20;1.00;;;;;;5055008;28;20416;-45
2023/05/01 00:56:15;;;;;;;11.17;10.17;;;10.20;1.00;;;;;;5055006;28;20436;-46
2023/05/01 00:58:41;;;;;;;12.13;10.90;;;10.20;1.00;;;;;;5054729;28;20249;-43
2023/05/01 01:01:09;;;;;;;10.80;9.90;;;10.20;1.00;;;;;;5053804;28;20533;-43
2023/05/01 01:03:35;;;;;;;10.23;9.13;;;10.20;1.00;;;;;;5053301;28;20404;-44
2023/05/01 01:06:07;;;;;;;11.37;10.27;;;10.30;1.00;;;;;;5053355;28;20424;-43
2023/05/01 01:08:48;;;;;;;11.87;10.67;;;10.20;1.00;;;;;;5051099;28;20174;-43
2023/05/01 01:11:22;;;;;;;13.10;10.40;;;10.30;1.00;;;;;;5050841;28;20428;-45
2023/05/01 01:14:16;;;;;;;10.03;9.03;;;10.30;1.00;;;;;;5052355;28;20712;-45
2023/05/01 01:16:48;;;;;;;11.40;9.77;;;10.30;99.90;;;;;;5051194;28;20849;-44
2023/05/01 01:19:38;;;;;;;10.37;9.10;;;10.30;99.90;;;;;;5051159;28;20420;-46
2023/05/01 01:22:16;;;;;;;9.03;8.23;;;10.30;47.60;;;;;;5053006;28;20490;-44
2023/05/01 01:25:06;;;;;;;9.80;8.20;;;10.30;1.00;;;;;;5052323;28;20813;-44
2023/05/01 01:27:53;;;;;;;10.60;9.13;;;10.30;1.00;;;;;;5051084;28;20497;-45
2023/05/01 01:30:25;;;;;;;11.43;10.23;;;10.30;39.70;;;;;;5050295;28;20523;-43
2023/05/01 01:33:15;;;;;;;13.10;10.20;;;10.30;99.90;;;;;;5049992;28;20488;-43
2023/05/01 01:35:55;;;;;;;12.27;11.07;;;10.30;99.90;;;;;;5048335;28;20436;-43
2023/05/01 01:38:23;;;;;;;12.60;11.40;;;10.20;99.90;;;;;;5050715;28;20424;-43
2023/05/01 01:40:52;;;;;;;11.30;10.30;;;10.20;1.00;;;;;;5052360;28;20474;-44
2023/05/01 01:43:19;;;;;;;10.40;9.50;;;10.20;1.00;;;;;;5051156;28;20655;-43
2023/05/01 01:45:54;;;;;;;10.60;9.70;;;10.20;1.00;;;;;;5052776;28;20555;-45
2023/05/01 01:48:29;;;;;;;11.63;10.63;;;10.20;1.00;;;;;;5052137;28;20756;-42
2023/05/01 01:50:57;;;;;;;10.87;9.77;;;10.20;1.00;;;;;;5051825;28;20510;-42
2023/05/01 01:53:24;;;;;;;10.60;9.67;;;10.20;1.00;;;;;;5051920;28;20505;-43
2023/05/01 01:55:50;;;;;;;10.50;9.50;;;10.20;99.90;;;;;;5051215;28;20503;-43
2023/05/01 01:58:17;;;;;;;10.80;9.80;;;10.20;99.90;;;;;;5051333;28;20416;-44
2023/05/01 02:00:44;;;;;;;10.77;9.77;;;10.20;99.90;;;;;;5050841;28;20484;-43
2023/05/01 02:03:10;;;;;;;9.97;9.07;;;10.20;1.00;;;;;;5051558;28;20435;-44
2023/05/01 02:05:39;;;;;;;10.60;9.50;;;10.20;99.90;;;;;;5054032;28;20471;-42
2023/05/01 02:08:06;;;;;;;10.60;9.70;;;10.20;1.00;;;;;;5053998;28;20408;-46
2023/05/01 02:10:32;;;;;;;10.67;9.77;;;10.20;1.00;;;;;;5053290;28;20428;-43
2023/05/01 02:12:58;;;;;;;12.27;11.10;;;10.20;1.00;;;;;;5053042;28;20408;-46
2023/05/01 02:15:26;;;;;;;11.60;10.60;;;10.20;1.00;;;;;;5053974;28;20520;-43
2023/05/01 02:17:52;;;;;;;11.57;10.50;;;10.20;26.10;;;;;;5055418;28;20481;-47
2023/05/01 02:20:18;;;;;;;11.87;10.77;;;10.20;54.60;;;;;;5058422;28;20725;-45
2023/05/01 02:22:45;;;;;;;13.13;11.83;;;10.20;99.90;;;;;;5058492;28;20464;-44
2023/05/01 02:25:12;;;;;;;12.23;11.10;;;10.20;99.90;;;;;;5057510;28;20424;-43
2023/05/01 02:28:05;;;;;;;11.67;10.67;;;10.30;99.90;;;;;;5058272;28;20412;-44
2023/05/01 02:30:31;;;;;;;11.07;9.90;;;10.30;99.90;;;;;;5056202;28;20502;-45
2023/05/01 02:32:56;;;;;;;11.67;10.60;;;10.20;99.90;;;;;;5056711;28;20412;-42
2023/05/01 02:35:24;;;;;;;10.43;9.43;;;10.20;99.90;;;;;;5057705;28;20475;-43
2023/05/01 02:37:50;;;;;;;11.70;9.80;;;10.20;99.90;;;;;;5057460;28;20412;-43
2023/05/01 02:40:15;;;;;;;11.60;10.17;;;10.20;99.90;;;;;;5057951;28;20189;-43
2023/05/01 02:42:45;;;;;;;11.07;9.97;;;10.20;99.90;;;;;;5057639;28;20471;-43
2023/05/01 02:45:18;;;;;;;10.90;9.80;;;10.20;99.90;;;;;;5039101;28;20209;-44
2023/05/01 02:47:47;;;;;;;11.47;10.47;;;10.20;99.90;;;;;;5054439;28;20412;-44
2023/05/01 02:50:14;;;;;;;11.10;10.10;;;10.20;99.90;;;;;;5053731;28;20428;-43
2023/05/01 02:52:39;;;;;;;11.20;10.20;;;10.30;99.90;;;;;;5054438;28;20413;-46
2023/05/01 02:55:06;;;;;;;10.80;9.90;;;10.30;99.90;;;;;;5054542;28;20535;-45
2023/05/01 02:57:32;;;;;;;13.03;11.73;;;10.30;99.90;;;;;;5053833;28;20583;-43
2023/05/01 02:59:58;;;;;;;10.23;9.33;;;10.30;99.90;;;;;;5054993;28;20440;-43
2023/05/01 03:02:24;;;;;;;11.10;10.10;;;10.30;99.90;;;;;;5056067;28;20592;-44
2023/05/01 03:04:49;;;;;;;12.70;11.50;;;10.30;99.90;;;;;;5056599;28;20551;-44
2023/05/01 03:07:15;;;;;;;10.17;9.23;;;10.30;99.90;;;;;;5057224;28;20174;-44
2023/05/01 03:09:40;;;;;;;11.07;10.03;;;10.30;99.90;;;;;;5057650;28;20240;-45
2023/05/01 03:12:06;;;;;;;11.27;10.17;;;10.30;99.90;;;;;;5056756;28;20640;-46
2023/05/01 03:14:32;;;;;;;10.87;9.87;;;10.30;99.90;;;;;;5038501;28;20182;-44
2023/05/01 03:16:57;;;;;;;10.83;9.80;;;10.30;99.90;;;;;;5056614;28;20260;-43
2023/05/01 03:19:23;;;;;;;11.30;10.20;;;10.30;99.90;;;;;;5054970;28;20475;-43
2023/05/01 03:21:49;;;;;;;10.70;9.77;;;10.30;99.90;;;;;;5056016;28;20201;-44
2023/05/01 03:24:15;;;;;;;12.33;11.03;;;10.30;99.90;;;;;;5056498;28;20197;-45
2023/05/01 03:26:41;;;;;;;11.97;10.87;;;10.30;99.90;;;;;;5054969;28;20264;-45
2023/05/01 03:29:07;;;;;;;11.03;10.03;;;10.20;99.90;;;;;;5055310;28;20555;-43
2023/05/01 03:31:33;;;;;;;10.63;9.73;;;10.30;1.00;;;;;;5041327;28;20220;-46
2023/05/01 03:33:58;;;;;;;11.27;10.17;;;10.30;1.00;;;;;;5036243;28;20413;-45
2023/05/01 03:36:24;;;;;;;11.27;10.27;;;10.30;99.90;;;;;;5037174;28;20293;-44
2023/05/01 03:38:50;;;;;;;11.60;10.40;;;10.30;99.90;;;;;;5037469;28;20240;-43
2023/05/01 03:41:16;;;;;;;11.60;10.60;;;10.30;99.90;;;;;;5037131;28;20213;-44
2023/05/01 03:43:42;;;;;;;12.07;11.07;;;10.30;99.90;;;;;;5036813;28;20480;-43
2023/05/01 03:46:07;;;;;;;11.03;10.10;;;10.30;99.90;;;;;;5035793;28;20497;-43
2023/05/01 03:48:33;;;;;;;12.10;11.03;;;10.20;99.90;;;;;;5034692;28;20166;-47
2023/05/01 03:50:59;;;;;;;10.97;9.97;;;10.20;99.90;;;;;;5036541;28;20182;-45
2023/05/01 03:53:24;;;;;;;12.33;11.23;;;10.20;99.90;;;;;;5036312;28;20178;-44
2023/05/01 03:55:50;;;;;;;10.90;9.90;;;10.20;1.00;;;;;;5036322;28;20182;-44
2023/05/01 03:58:16;;;;;;;11.43;10.40;;;10.30;1.00;;;;;;5036525;28;20564;-43
2023/05/01 04:00:42;;;;;;;11.87;10.77;;;10.30;1.00;;;;;;5036742;28;20182;-46
2023/05/01 04:03:07;;;;;;;12.57;11.27;;;10.30;99.90;;;;;;5045572;28;20170;-44
2023/05/01 04:05:33;;;;;;;12.83;11.63;;;10.30;99.90;;;;;;5056039;28;20431;-45
2023/05/01 04:07:59;;;;;;;12.50;11.30;;;10.30;99.90;;;;;;5054471;28;20413;-44
2023/05/01 04:10:25;;;;;;;12.17;11.00;;;10.30;99.90;;;;;;5055017;28;20543;-46
2023/05/01 04:12:50;;;;;;;12.60;11.50;;;10.30;99.90;;;;;;5055360;28;20594;-45
2023/05/01 04:15:16;;;;;;;12.23;11.13;;;10.30;99.90;;;;;;5055166;28;20382;-45
2023/05/01 04:17:43;;;;;;;12.20;11.10;;;10.30;1.00;;;;;;5054814;28;20181;-44
2023/05/01 04:20:09;;;;;;;12.83;11.60;;;10.30;1.00;;;;;;5054146;28;20178;-45
2023/05/01 04:22:35;;;;;;;12.47;11.43;;;10.30;1.00;;;;;;5053171;28;20565;-44
2023/05/01 04:25:01;;;;;;;10.77;9.73;;;10.30;99.90;;;;;;5054542;28;20813;-47
2023/05/01 04:27:27;;;;;;;11.13;10.13;;;10.20;99.90;;;;;;5054481;28;20594;-45
2023/05/01 04:29:52;;;;;;;12.00;10.90;;;10.20;1.00;;;;;;5054979;28;20260;-47
2023/05/01 04:32:18;;;;;;;11.70;10.50;;;10.20;19.40;;;;;;5054695;28;20177;-46
2023/05/01 04:34:44;;;;;;;12.13;10.93;;;10.20;25.40;;;;;;5054794;28;20182;-43
2023/05/01 04:37:10;;;;;;;11.60;10.60;;;10.20;47.20;;;;;;5055143;28;20484;-45
2023/05/01 04:39:35;;;;;;;10.73;9.73;;;10.30;99.10;;;;;;5055223;28;20234;-46
2023/05/01 04:42:02;;;;;;;12.20;11.00;;;10.30;19.00;;;;;;5054899;28;20209;-47
2023/05/01 04:44:28;;;;;;;11.90;10.90;;;10.30;1.00;;;;;;5055392;28;20165;-46
2023/05/01 04:46:53;;;;;;;10.90;10.00;;;10.30;1.00;;;;;;5055149;28;20416;-45
2023/05/01 04:49:21;;;;;;;11.90;10.70;;;10.30;1.00;;;;;;5054145;28;20193;-45
2023/05/01 04:51:46;;;;;;;11.27;10.17;;;10.30;1.00;;;;;;5055178;28;20166;-44
2023/05/01 04:54:12;;;;;;;11.20;10.23;;;10.40;1.00;;;;;;5055332;28;20424;-47
2023/05/01 04:56:38;;;;;;;12.57;11.40;;;10.40;56.80;;;;;;5054765;28;20184;-46
2023/05/01 04:59:04;;;;;;;12.00;10.80;;;10.40;99.90;;;;;;5055488;28;20174;-46
2023/05/01 05:01:29;;;;;;;11.37;10.33;;;10.40;99.90;;;;;;5055171;28;20297;-44
2023/05/01 05:03:55;;;;;;;12.43;11.33;;;10.50;99.90;;;;;;5055422;28;20196;-44
2023/05/01 05:06:21;;;;;;;12.20;11.10;;;10.50;99.90;;;;;;5055540;28;20246;-44
2023/05/01 05:08:50;;;;;;;13.30;12.10;;;10.50;99.90;;;;;;5055243;28;20170;-45
2023/05/01 05:11:17;;;;;;;11.77;10.77;;;10.50;99.90;;;;;;5055467;28;20428;-44
2023/05/01 05:13:43;;;;;;;13.00;11.80;;;10.60;99.90;;;;;;5055604;28;20530;-44
2023/05/01 05:16:09;;;;;;;11.60;10.50;;;10.60;99.90;;;;;;5055272;28;20489;-43
2023/05/01 05:18:35;;;;;;;12.40;11.20;;;10.50;1.00;;;;;;5055678;28;20507;-44
2023/05/01 05:21:04;;;;;;;12.00;11.00;;;10.60;1.00;;;;;;5055790;28;20255;-44
2023/05/01 05:23:30;;;;;;;11.67;10.70;;;10.60;1.00;;;;;;5054856;28;20188;-44
2023/05/01 05:25:57;;;;;;;11.87;10.87;;;10.60;1.00;;;;;;5055658;28;20424;-44
2023/05/01 05:28:23;;;;;;;12.63;11.33;;;10.60;1.00;;;;;;5039088;28;20316;-47
2023/05/01 05:30:48;;;;;;;11.83;9.90;;;10.60;12.90;;;;;;5035187;28;20522;-45
2023/05/01 05:33:14;;;;;;;12.40;11.23;;;10.60;96.80;;;;;;5035648;28;20173;-46
2023/05/01 05:35:40;;;;;;;12.67;11.47;;;10.70;1.00;;;;;;5033377;28;20433;-45
2023/05/01 05:38:05;;;;;;;10.67;9.77;;;10.60;1.00;;;;;;5034496;28;20265;-46
2023/05/01 05:40:31;;;;;;;11.63;10.53;;;10.70;1.00;;;;;;5034828;28;20248;-44
2023/05/01 05:42:57;;;;;;;13.27;12.07;;;10.70;1.00;;;;;;5035336;28;20194;-45
2023/05/01 05:45:23;;;;;;;11.57;10.47;;;10.70;99.90;;;;;;5035300;28;20439;-47
2023/05/01 05:47:48;;;;;;;12.07;10.97;;;10.80;99.90;;;;;;5035251;28;20459;-45
2023/05/01 05:50:14;;;;;;;12.00;11.00;;;10.80;99.90;;;;;;5044434;28;20438;-44
2023/05/01 05:52:40;;;;;;;13.13;11.73;;;10.80;99.90;;;;;;5058691;28;20186;-50
2023/05/01 05:55:06;;;;;;;11.53;10.63;;;10.90;99.90;;;;;;5059315;28;20420;-45
2023/05/01 05:57:35;;;;;;;11.40;10.40;;;10.90;99.90;;;;;;5059274;28;20412;-44
2023/05/01 06:00:04;;;;;;;12.33;11.13;;;11.00;99.90;;;;;;5058339;28;20582;-44
2023/05/01 06:02:31;;;;;;;11.47;10.47;;;11.00;99.90;;;;;;5057535;28;20460;-44
2023/05/01 06:04:57;;;;;;;12.37;11.30;;;11.00;21.70;;;;;;5056174;28;20481;-43
2023/05/01 06:07:42;;;;;;;11.40;10.30;;;11.10;99.90;;;;;;5057331;28;20416;-46
2023/05/01 06:10:12;;;;;;;10.83;9.93;;;11.20;99.90;;;;;;5056609;28;20446;-44
2023/05/01 06:12:38;;;;;;;11.30;10.30;;;11.30;99.90;;;;;;5058712;28;20495;-44
2023/05/01 06:15:36;;;;;;;12.17;11.07;;;11.40;99.90;;;;;;5058519;28;20864;-47
2023/05/01 06:18:02;;;;;;;11.23;10.13;;;11.60;1.00;;;;;;5055736;28;20180;-45
2023/05/01 06:20:28;;;;;;;10.10;9.20;;;11.60;50.40;;;;;;5057839;28;20602;-45
2023/05/01 06:22:54;;;;;;;11.00;10.00;;;11.70;1.00;;;;;;5056328;28;20470;-45
2023/05/01 06:25:22;;;;;;;11.30;10.30;;;11.70;99.90;;;;;;5056894;28;20276;-47
2023/05/01 06:27:50;;;;;;;10.40;9.50;;;11.80;99.90;;;;;;5052277;28;20523;-44
2023/05/01 06:30:18;;;;;;;9.57;8.77;;;11.80;99.90;;;;;;5036964;28;20531;-44
2023/05/01 06:32:45;;;;;;;9.87;9.00;;;11.80;99.90;;;;;;5037288;28;20420;-44
2023/05/01 06:35:11;;;;;;;10.43;9.43;;;11.80;1.00;;;;;;5036215;28;20441;-43
2023/05/01 06:37:37;;;;;;;9.67;8.87;;;11.90;99.90;;;;;;5035479;28;20532;-43
2023/05/01 06:40:05;;;;;;;9.70;8.80;;;11.80;99.90;;;;;;5035720;28;20813;-43
2023/05/01 06:42:30;;;;;;;11.27;8.80;;;11.90;83.60;;;;;;5036164;28;20510;-42
2023/05/01 06:44:56;;;;;;;10.53;9.63;;;11.80;22.20;;;;;;5036360;28;20433;-43
2023/05/01 06:47:22;;;;;;;11.20;10.20;;;11.80;1.00;;;;;;5051020;28;20291;-45
2023/05/01 06:49:47;;;;;;;10.67;9.60;;;11.90;1.00;;;;;;5056462;28;20182;-43
2023/05/01 06:52:13;;;;;;;11.53;10.47;;;11.90;1.00;;;;;;5055772;28;20186;-43
2023/05/01 06:54:40;;;;;;;10.60;9.70;;;11.90;1.00;;;;;;5056780;28;20624;-42
2023/05/01 06:57:05;;;;;;;10.33;9.40;;;11.90;1.00;;;;;;5056132;28;20443;-45
2023/05/01 06:59:31;;;;;;;11.57;9.27;;;12.10;1.00;;;;;;5056208;28;20424;-42
2023/05/01 07:01:57;;;;;;;9.90;9.00;;;12.30;1.00;;;;;;5056090;28;20217;-44
2023/05/01 07:04:23;;;;;;;9.83;9.03;;;12.40;99.90;;;;;;5057554;28;20170;-45
2023/05/01 07:06:48;;;;;;;11.13;7.90;;;12.60;1.00;;;;;;5057010;28;20547;-43
2023/05/01 07:09:14;;;;;;;10.30;9.30;;;12.70;1.00;;;;;;5057771;28;20178;-44
2023/05/01 07:11:41;;;;;;;10.63;9.53;;;12.90;1.00;;;;;;5057235;28;20436;-45
2023/05/01 07:14:07;;;;;;;9.70;8.80;;;12.90;1.00;;;;;;5055956;28;20184;-43
2023/05/01 07:16:33;;;;;;;9.13;8.23;;;12.90;99.90;;;;;;5056620;28;20459;-45
2023/05/01 07:18:59;;;;;;;10.67;9.67;;;12.70;99.90;;;;;;5057059;28;20726;-42
2023/05/01 07:21:24;;;;;;;10.40;9.40;;;12.70;1.00;;;;;;5056389;28;20257;-42
2023/05/01 07:23:50;;;;;;;9.73;8.87;;;12.50;99.90;;;;;;5057570;28;20178;-43
2023/05/01 07:26:16;;;;;;;10.23;9.37;;;12.60;1.00;;;;;;5056873;28;20213;-43
2023/05/01 07:28:42;;;;;;;9.60;8.80;;;12.50;99.90;;;;;;5054867;28;20264;-44
2023/05/01 07:31:11;;;;;;;10.87;9.73;;;12.60;99.90;;;;;;5054931;28;20766;-43
2023/05/01 07:33:37;;;;;;;9.03;8.23;;;12.80;1.00;;;;;;5057142;28;20178;-47
2023/05/01 07:36:03;;;;;;;9.23;8.43;;;12.80;1.00;;;;;;5057483;28;20543;-43
2023/05/01 07:38:29;;;;;;;9.53;8.63;;;13.00;1.00;;;;;;5055611;28;20251;-43
2023/05/01 07:40:55;;;;;;;9.43;8.63;;;13.10;1.00;;;;;;5057201;28;20502;-45
2023/05/01 07:43:21;;;;;;;10.73;9.83;;;13.20;1.00;;;;;;5055727;28;20432;-43
2023/05/01 07:45:59;;;;;;;9.93;9.10;;;13.20;99.90;;;;;;5056528;28;20933;-43
2023/05/01 07:48:25;;;;;;;9.57;8.67;;;13.20;1.00;;;;;;5055805;28;20408;-44
2023/05/01 07:50:51;;;;;;;9.53;8.70;;;13.30;1.00;;;;;;5053494;28;20428;-44
2023/05/01 07:53:17;;;;;;;9.80;9.00;;;13.40;99.90;;;;;;5054406;28;20716;-47
2023/05/01 07:55:42;;;;;;;9.77;9.00;;;13.50;1.00;;;;;;5055366;28;20269;-44
2023/05/01 07:58:08;;;;;;;9.50;8.80;;;13.50;1.00;;;;;;5054064;28;20264;-44
2023/05/01 08:00:34;;;;;;;9.07;8.27;;;13.70;1.00;;;;;;5054336;28;20185;-44
2023/05/01 08:03:00;;;;;;;10.07;9.27;;;13.70;73.20;;;;;;5054499;28;20213;-44
2023/05/01 08:05:26;;;;;;;10.97;8.33;;;13.70;1.00;;;;;;5053135;28;20749;-45
2023/05/01 08:07:51;;;;;;;8.90;8.20;;;13.70;1.00;;;;;;5053816;28;20420;-46
2023/05/01 08:10:17;;;;;;;8.93;8.10;;;13.80;1.00;;;;;;5053982;28;20233;-44
2023/05/01 08:12:43;;;;;;;9.07;8.37;;;13.90;1.00;;;;;;5054933;28;20220;-46
2023/05/01 08:15:09;;;;;;;9.60;8.70;;;14.00;1.00;;;;;;5055313;28;20200;-45
2023/05/01 08:17:35;;;;;;;8.57;7.87;;;14.20;1.00;;;;;;5053719;28;20177;-43
2023/05/01 08:20:01;;;;;;;9.33;8.43;;;14.30;1.00;;;;;;5054809;28;20424;-43
2023/05/01 08:22:27;;;;;;;10.17;8.93;;;14.40;1.00;;;;;;5054008;28;20494;-45
2023/05/01 08:24:52;;;;;;;8.20;7.40;;;14.60;99.90;;;;;;5053122;28;20432;-43
2023/05/01 08:27:18;;;;;;;8.73;8.03;;;14.70;81.70;;;;;;5053490;28;20182;-43
2023/05/01 08:29:44;;;;;;;8.93;8.23;;;14.90;6.20;;;;;;5052883;28;20289;-44
2023/05/01 08:32:10;;;;;;;8.93;8.17;;;14.80;1.00;;;;;;5053837;28;20219;-42
2023/05/01 08:34:35;;;;;;;7.90;7.20;;;14.80;1.00;;;;;;5053940;28;20356;-43
2023/05/01 08:37:01;;;;;;;7.70;7.03;;;14.90;1.00;;;;;;5053792;28;20256;-43
2023/05/01 08:39:27;;;;;;;9.07;8.17;;;15.10;1.00;;;;;;5054626;28;20188;-44
2023/05/01 08:41:53;;;;;;;9.27;8.37;;;15.30;99.90;;;;;;5054268;28;20224;-45
2023/05/01 08:44:24;;;;;;;8.40;7.60;;;15.30;99.90;;;;;;5053126;28;20206;-44
2023/05/01 08:47:13;;;;;;;8.00;7.30;;;15.60;99.90;;;;;;5053886;28;20186;-43
2023/05/01 08:49:41;;;;;;;9.70;8.80;;;15.80;99.90;;;;;;5050309;28;20424;-43
2023/05/01 08:52:07;;;;;;;10.07;9.00;;;15.80;99.90;;;;;;5051359;28;20424;-46
2023/05/01 08:54:34;;;;;;;8.13;7.53;;;15.70;99.90;;;;;;5052239;28;20850;-47
2023/05/01 08:57:04;;;;;;;8.03;7.43;;;15.70;99.90;;;;;;5050975;28;20507;-43
2023/05/01 08:59:33;;;;;;;7.90;7.30;;;15.90;99.90;;;;;;5052397;28;20719;-43
2023/05/01 09:02:00;;;;;;;10.10;7.43;;;16.00;99.90;;;;;;5051337;28;20460;-45
2023/05/01 09:04:31;;;;;;;9.10;8.20;;;16.30;99.90;;;;;;5050286;28;20407;-44
2023/05/01 09:06:59;;;;;;;8.27;7.53;;;16.50;99.90;;;;;;5051738;28;20652;-45
2023/05/01 09:09:25;;;;;;;8.37;7.57;;;16.30;57.70;;;;;;5050203;28;20419;-45
2023/05/01 09:11:57;;;;;;;6.57;5.90;;;16.40;67.20;;;;;;5051545;28;20420;-44
2023/05/01 09:14:23;;;;;;;7.77;7.07;;;16.60;21.80;;;;;;5051723;28;20871;-46
2023/05/01 09:16:49;;;;;;;7.47;6.83;;;17.00;1.00;;;;;;5051768;28;20511;-46
2023/05/01 09:19:15;;;;;;;7.40;6.80;;;17.30;1.00;;;;;;5053593;28;20684;-44
2023/05/01 09:21:41;;;;;;;8.30;7.50;;;17.30;1.00;;;;;;5053034;28;20464;-46
2023/05/01 09:24:07;;;;;;;8.47;7.77;;;17.50;1.00;;;;;;5051449;28;20416;-43
2023/05/01 09:26:35;;;;;;;8.57;7.63;;;17.20;1.00;;;;;;5056694;28;20428;-44
2023/05/01 09:29:01;;;;;;;7.70;7.00;;;17.30;1.00;;;;;;5055738;28;20248;-44
2023/05/01 09:31:28;;;;;;;8.13;7.47;;;17.50;1.00;;;;;;5058821;28;20494;-45
2023/05/01 09:33:59;;;;;;;7.20;6.60;;;17.50;1.00;;;;;;5058906;28;20697;-46
2023/05/01 09:36:26;;;;;;;7.83;7.23;;;17.60;1.00;;;;;;5056852;28;20478;-48
2023/05/01 09:38:52;;;;;;;6.97;6.37;;;17.60;1.00;;;;;;5057192;28;20427;-44
2023/05/01 09:41:22;;;;;;;7.67;6.97;;;17.70;1.00;;;;;;5057145;28;20572;-45
2023/05/01 09:43:52;;;;;;;8.50;7.67;;;17.70;1.00;;;;;;5056850;28;20408;-43
2023/05/01 09:46:18;;;;;;;7.50;6.80;;;17.80;1.00;;;;;;5057259;28;20697;-46
2023/05/01 09:48:58;;;;;;;7.50;7.00;;;17.80;1.00;;;;;;5057312;28;20554;-44
2023/05/01 09:51:31;;;;;;;7.53;6.83;;;17.80;1.00;;;;;;5054727;28;20463;-43
2023/05/01 09:54:05;;;;;;;6.97;6.40;;;17.90;1.00;;;;;;5054192;28;20454;-45
2023/05/01 09:56:32;;;;;;;6.27;5.67;;;18.20;1.00;;;;;;5053565;28;20440;-46
2023/05/01 09:59:15;;;;;;;6.53;5.93;;;18.50;1.00;;;;;;5057133;28;20729;-44
2023/05/01 10:01:43;;;;;;;6.27;5.77;;;18.90;1.00;;;;;;5055002;28;20528;-43
2023/05/01 10:04:08;;;;;;;6.87;5.43;;;19.10;1.00;;;;;;5054687;28;20416;-46
2023/05/01 10:06:35;;;;;;;6.93;6.43;;;19.30;1.00;;;;;;5050969;28;20712;-45
2023/05/01 10:09:02;;;;;;;6.33;5.83;;;19.40;1.00;;;;;;5051084;28;20400;-46
2023/05/01 10:11:27;;;;;;;6.67;6.17;;;19.60;1.00;;;;;;5054487;28;20462;-46
2023/05/01 10:14:07;;;;;;;8.37;7.70;;;19.40;1.00;;;;;;5052498;28;20427;-45
2023/05/01 10:16:34;;;;;;;7.63;6.93;;;19.30;1.00;;;;;;5054861;28;20210;-46
2023/05/01 10:19:01;;;;;;;7.13;6.57;;;19.30;1.00;;;;;;5054254;28;20687;-44
2023/05/01 10:21:26;;;;;;;7.33;6.70;;;19.00;1.00;;;;;;5056354;28;20489;-45
2023/05/01 10:23:52;;;;;;;7.50;6.80;;;19.10;1.00;;;;;;5056294;28;20991;-47
2023/05/01 10:26:19;;;;;;;8.10;7.40;;;18.90;1.00;;;;;;5054810;28;20723;-44
2023/05/01 10:28:47;;;;;;;8.13;7.53;;;18.70;1.00;;;;;;5056767;28;20464;-46
2023/05/01 10:31:14;;;;;;;8.70;8.00;;;18.10;1.00;;;;;;5056386;28;20424;-44
2023/05/01 10:33:40;;;;;;;8.30;7.03;;;18.00;1.00;;;;;;5056605;28;20438;-45
2023/05/01 10:36:21;;;;;;;7.30;6.70;;;18.20;1.00;;;;;;5055745;28;20427;-45
2023/05/01 10:38:47;;;;;;;7.60;6.87;;;18.30;1.00;;;;;;5054597;28;20500;-44
2023/05/01 10:41:16;;;;;;;8.50;7.83;;;18.30;1.00;;;;;;5057152;28;20476;-44
2023/05/01 10:43:42;;;;;;;7.10;6.50;;;17.90;1.00;;;;;;5056645;28;20506;-43
2023/05/01 10:46:19;;;;;;;8.50;7.80;;;17.90;1.00;;;;;;5056558;28;20420;-48
2023/05/01 10:48:45;;;;;;;8.80;8.10;;;17.90;1.00;;;;;;5049067;28;20490;-49
2023/05/01 10:51:11;;;;;;;8.87;8.07;;;18.00;1.00;;;;;;5037080;28;20736;-45
2023/05/01 10:53:40;;;;;;;8.27;7.57;;;18.00;1.00;;;;;;5039487;28;20177;-44
2023/05/01 10:56:24;;;;;;;12.97;11.70;;;17.90;1.00;;;;;;5056732;28;20180;-47
2023/05/01 10:58:54;;;;;;;8.60;7.90;;;17.50;1.00;;;;;;5057237;28;20845;-47
2023/05/01 11:01:27;;;;;;;8.23;7.43;;;17.30;1.00;;;;;;5057484;28;20558;-44
2023/05/01 11:03:53;;;;;;;8.83;8.13;;;17.10;1.00;;;;;;5057212;28;20415;-45
2023/05/01 11:06:19;;;;;;;6.73;6.23;;;17.10;1.00;;;;;;5055690;28;20419;-44
2023/05/01 11:08:46;;;;;;;7.40;6.80;;;17.10;1.00;;;;;;5055994;28;20439;-45
2023/05/01 11:11:20;;;;;;;7.87;7.27;;;17.10;1.00;;;;;;5054576;28;20208;-48
2023/05/01 11:14:07;;;;;;;7.10;6.50;;;17.10;1.00;;;;;;5056081;28;20435;-45
2023/05/01 11:16:32;;;;;;;8.23;6.93;;;17.10;1.00;;;;;;5052822;28;20438;-44
2023/05/01 11:18:58;;;;;;;7.90;7.30;;;17.10;1.00;;;;;;5056621;28;20404;-46
2023/05/01 11:21:34;;;;;;;7.83;7.13;;;17.00;1.00;;;;;;5056963;28;20621;-46
2023/05/01 11:24:00;;;;;;;9.20;8.40;;;16.90;1.00;;;;;;5054649;28;20250;-44
2023/05/01 11:26:27;;;;;;;8.93;8.13;;;16.90;1.00;;;;;;5055504;28;20651;-46
2023/05/01 11:28:54;;;;;;;9.13;8.33;;;16.80;1.00;;;;;;5054665;28;20475;-43
2023/05/01 11:31:20;;;;;;;8.50;7.70;;;16.50;1.00;;;;;;5054750;28;20439;-44
2023/05/01 11:33:46;;;;;;;9.87;8.73;;;16.20;1.00;;;;;;5055087;28;20818;-45
2023/05/01 11:36:13;;;;;;;9.20;8.40;;;16.10;1.00;;;;;;5052412;28;20444;-44
2023/05/01 11:38:51;;;;;;;10.83;9.77;;;16.00;43.10;;;;;;5053002;28;20518;-43
2023/05/01 11:41:20;;;;;;;9.77;9.00;;;15.70;99.90;;;;;;5053657;28;20463;-51
2023/05/01 11:43:57;;;;;;;8.70;8.00;;;15.50;99.90;;;;;;5054703;28;20795;-44
2023/05/01 11:46:30;;;;;;;10.70;9.80;;;15.40;99.90;;;;;;5052886;28;20423;-43
2023/05/01 11:48:58;;;;;;;8.83;8.03;;;15.20;1.00;;;;;;5051522;28;20420;-45
2023/05/01 11:51:25;;;;;;;7.87;7.20;;;15.30;1.00;;;;;;5053044;28;20428;-43
2023/05/01 11:54:00;;;;;;;8.60;7.90;;;15.40;1.00;;;;;;5048328;28;20429;-45
2023/05/01 11:56:26;;;;;;;7.67;7.00;;;15.50;99.90;;;;;;5034771;28;20420;-45
2023/05/01 11:58:57;;;;;;;9.10;8.20;;;15.50;99.90;;;;;;5034059;28;20563;-44
2023/05/01 12:01:39;;;;;;;8.60;7.90;;;15.60;99.90;;;;;;5035540;28;20978;-45
2023/05/01 12:04:07;;;;;;;8.20;7.40;;;15.80;99.90;;;;;;5034768;28;20524;-44
2023/05/01 12:06:44;;;;;;;7.50;6.80;;;15.70;99.90;;;;;;5034804;28;20578;-43
2023/05/01 12:09:20;;;;;;;7.60;6.87;;;15.80;99.90;;;;;;5036123;28;20755;-46
2023/05/01 12:11:49;;;;;;;6.20;5.70;;;16.10;99.90;;;;;;5034626;28;20452;-45
2023/05/01 12:14:15;;;;;;;7.80;5.10;;;16.30;99.90;;;;;;5033671;28;20837;-46
2023/05/01 12:16:42;;;;;;;6.33;5.73;;;16.60;99.90;;;;;;5032832;28;20462;-44
2023/05/01 12:19:08;;;;;;;5.00;4.50;;;16.90;99.90;;;;;;5038623;28;20574;-44
2023/05/01 12:21:36;;;;;;;5.10;4.70;;;17.20;1.00;;;;;;5054228;28;20471;-49
2023/05/01 12:24:11;;;;;;;5.30;4.90;;;17.40;1.00;;;;;;5053457;28;20716;-47
2023/05/01 12:26:36;;;;;;;6.43;5.53;;;17.60;1.00;;;;;;5054389;28;20423;-47
2023/05/01 12:29:04;;;;;;;5.47;4.90;;;17.80;1.00;;;;;;5050427;28;20468;-50
2023/05/01 12:31:30;;;;;;;6.07;5.67;;;17.90;99.90;;;;;;5050522;28;20862;-45
2023/05/01 12:33:58;;;;;;;7.03;6.43;;;18.10;99.90;;;;;;5051096;28;20998;-45
2023/05/01 12:36:27;;;;;;;6.30;5.70;;;18.20;99.90;;;;;;5050763;28;20829;-46
2023/05/01 12:39:06;;;;;;;6.30;5.80;;;18.30;99.90;;;;;;5052102;28;20702;-47
2023/05/01 12:41:33;;;;;;;6.70;6.10;;;18.30;99.90;;;;;;5050728;28;20464;-45
2023/05/01 12:43:59;;;;;;;7.87;7.10;;;18.30;99.90;;;;;;5049701;28;20690;-45
2023/05/01 12:46:26;;;;;;;7.03;6.27;;;18.30;99.90;;;;;;5050469;28;20436;-46